sensor_id;sensor_type;location;lat;lon;timestamp;P1;durP1;ratioP1;P2;durP2;ratioP2
72209;SDS011;60113;48.762;12.302;2022-07-10T00:02:26;12.63;;;7.97;;
72209;SDS011;60113;48.762;12.302;2022-07-10T00:04:51;11.82;;;8.23;;
72209;SDS011;60113;48.762;12.302;2022-07-10T00:07:16;12.75;;;8.68;;
72209;SDS011;60113;48.762;12.302;2022-07-10T00:09:42;9.43;;;8.15;;
72209;SDS011;60113;48.762;12.302;2022-07-10T00:12:07;15.30;;;8.90;;
72209;SDS011;60113;48.762;12.302;2022-07-10T00:14:33;10.15;;;8.73;;
72209;SDS011;60113;48.762;12.302;2022-07-10T00:16:58;13.52;;;8.77;;
72209;SDS011;60113;48.762;12.302;2022-07-10T00:19:24;11.05;;;9.52;;
72209;SDS011;60113;48.762;12.302;2022-07-10T00:21:49;12.23;;;8.77;;
72209;SDS011;60113;48.762;12.302;2022-07-10T00:24:15;10.25;;;8.85;;
72209;SDS011;60113;48.762;12.302;2022-07-10T00:26:40;13.30;;;9.02;;
72209;SDS011;60113;48.762;12.302;2022-07-10T00:29:05;12.23;;;9.30;;
72209;SDS011;60113;48.762;12.302;2022-07-10T00:31:31;12.75;;;9.23;;
72209;SDS011;60113;48.762;12.302;2022-07-10T00:33:56;13.77;;;9.88;;
72209;SDS011;60113;48.762;12.302;2022-07-10T00:36:22;10.27;;;8.95;;
72209;SDS011;60113;48.762;12.302;2022-07-10T00:38:47;11.48;;;9.82;;
72209;SDS011;60113;48.762;12.302;2022-07-10T00:41:13;13.80;;;10.70;;
72209;SDS011;60113;48.762;12.302;2022-07-10T00:43:51;14.40;;;10.32;;
72209;SDS011;60113;48.762;12.302;2022-07-10T00:46:18;14.02;;;10.43;;
72209;SDS011;60113;48.762;12.302;2022-07-10T00:48:48;12.95;;;9.98;;
72209;SDS011;60113;48.762;12.302;2022-07-10T00:51:14;15.60;;;10.20;;
72209;SDS011;60113;48.762;12.302;2022-07-10T00:53:41;14.50;;;9.70;;
72209;SDS011;60113;48.762;12.302;2022-07-10T00:56:09;11.70;;;9.77;;
72209;SDS011;60113;48.762;12.302;2022-07-10T00:58:35;13.38;;;9.63;;
72209;SDS011;60113;48.762;12.302;2022-07-10T01:01:02;9.50;;;8.38;;
72209;SDS011;60113;48.762;12.302;2022-07-10T01:03:27;10.55;;;8.18;;
72209;SDS011;60113;48.762;12.302;2022-07-10T01:05:53;11.82;;;8.35;;
72209;SDS011;60113;48.762;12.302;2022-07-10T01:08:18;14.45;;;7.43;;
72209;SDS011;60113;48.762;12.302;2022-07-10T01:10:44;13.32;;;8.15;;
72209;SDS011;60113;48.762;12.302;2022-07-10T01:13:12;9.02;;;6.75;;
72209;SDS011;60113;48.762;12.302;2022-07-10T01:15:38;10.15;;;8.05;;
72209;SDS011;60113;48.762;12.302;2022-07-10T01:18:03;11.85;;;8.20;;
72209;SDS011;60113;48.762;12.302;2022-07-10T01:20:32;9.93;;;7.70;;
72209;SDS011;60113;48.762;12.302;2022-07-10T01:22:59;12.68;;;7.93;;
72209;SDS011;60113;48.762;12.302;2022-07-10T01:25:25;9.90;;;7.32;;
72209;SDS011;60113;48.762;12.302;2022-07-10T01:27:50;11.57;;;7.00;;
72209;SDS011;60113;48.762;12.302;2022-07-10T01:30:16;13.27;;;7.55;;
72209;SDS011;60113;48.762;12.302;2022-07-10T01:32:44;9.43;;;7.22;;
72209;SDS011;60113;48.762;12.302;2022-07-10T01:35:10;8.27;;;6.80;;
72209;SDS011;60113;48.762;12.302;2022-07-10T01:37:36;12.95;;;7.68;;
72209;SDS011;60113;48.762;12.302;2022-07-10T01:40:02;11.50;;;7.80;;
72209;SDS011;60113;48.762;12.302;2022-07-10T01:42:28;7.57;;;6.68;;
72209;SDS011;60113;48.762;12.302;2022-07-10T01:44:54;9.10;;;7.43;;
72209;SDS011;60113;48.762;12.302;2022-07-10T01:47:19;10.00;;;7.35;;
72209;SDS011;60113;48.762;12.302;2022-07-10T01:49:49;13.43;;;7.18;;
72209;SDS011;60113;48.762;12.302;2022-07-10T01:52:15;9.43;;;7.30;;
72209;SDS011;60113;48.762;12.302;2022-07-10T01:54:40;10.60;;;7.82;;
72209;SDS011;60113;48.762;12.302;2022-07-10T01:57:06;10.68;;;7.25;;
72209;SDS011;60113;48.762;12.302;2022-07-10T01:59:31;14.82;;;8.00;;
72209;SDS011;60113;48.762;12.302;2022-07-10T02:01:57;10.35;;;7.75;;
72209;SDS011;60113;48.762;12.302;2022-07-10T02:04:22;9.30;;;7.35;;
72209;SDS011;60113;48.762;12.302;2022-07-10T02:07:06;10.98;;;7.50;;
72209;SDS011;60113;48.762;12.302;2022-07-10T02:09:35;17.92;;;8.70;;
72209;SDS011;60113;48.762;12.302;2022-07-10T02:12:02;8.65;;;7.75;;
72209;SDS011;60113;48.762;12.302;2022-07-10T02:14:28;13.20;;;7.85;;
72209;SDS011;60113;48.762;12.302;2022-07-10T02:16:55;12.57;;;7.78;;
72209;SDS011;60113;48.762;12.302;2022-07-10T02:19:20;13.43;;;7.50;;
72209;SDS011;60113;48.762;12.302;2022-07-10T02:21:46;9.55;;;7.28;;
72209;SDS011;60113;48.762;12.302;2022-07-10T02:24:12;14.20;;;7.18;;
72209;SDS011;60113;48.762;12.302;2022-07-10T02:26:37;11.52;;;6.90;;
72209;SDS011;60113;48.762;12.302;2022-07-10T02:29:03;14.52;;;6.68;;
72209;SDS011;60113;48.762;12.302;2022-07-10T02:31:29;8.55;;;7.07;;
72209;SDS011;60113;48.762;12.302;2022-07-10T02:33:54;13.07;;;6.20;;
72209;SDS011;60113;48.762;12.302;2022-07-10T02:36:20;11.80;;;6.45;;
72209;SDS011;60113;48.762;12.302;2022-07-10T02:38:45;11.38;;;6.22;;
72209;SDS011;60113;48.762;12.302;2022-07-10T02:41:11;13.73;;;5.78;;
72209;SDS011;60113;48.762;12.302;2022-07-10T02:43:36;11.00;;;5.93;;
72209;SDS011;60113;48.762;12.302;2022-07-10T02:46:02;9.57;;;5.88;;
72209;SDS011;60113;48.762;12.302;2022-07-10T02:48:28;8.23;;;5.43;;
72209;SDS011;60113;48.762;12.302;2022-07-10T02:50:53;10.80;;;5.30;;
72209;SDS011;60113;48.762;12.302;2022-07-10T02:53:19;10.50;;;5.00;;
72209;SDS011;60113;48.762;12.302;2022-07-10T02:55:44;5.47;;;4.97;;
72209;SDS011;60113;48.762;12.302;2022-07-10T02:58:10;6.25;;;4.15;;
72209;SDS011;60113;48.762;12.302;2022-07-10T03:00:36;6.18;;;3.95;;
72209;SDS011;60113;48.762;12.302;2022-07-10T03:03:01;7.78;;;4.65;;
72209;SDS011;60113;48.762;12.302;2022-07-10T03:05:27;6.78;;;4.10;;
72209;SDS011;60113;48.762;12.302;2022-07-10T03:07:52;6.07;;;4.57;;
72209;SDS011;60113;48.762;12.302;2022-07-10T03:10:18;7.47;;;4.43;;
72209;SDS011;60113;48.762;12.302;2022-07-10T03:12:44;5.25;;;4.60;;
72209;SDS011;60113;48.762;12.302;2022-07-10T03:15:10;7.65;;;5.18;;
72209;SDS011;60113;48.762;12.302;2022-07-10T03:17:36;6.20;;;4.07;;
72209;SDS011;60113;48.762;12.302;2022-07-10T03:20:01;6.38;;;4.47;;
72209;SDS011;60113;48.762;12.302;2022-07-10T03:22:27;6.85;;;4.75;;
72209;SDS011;60113;48.762;12.302;2022-07-10T03:24:53;6.07;;;5.05;;
72209;SDS011;60113;48.762;12.302;2022-07-10T03:27:19;9.27;;;6.22;;
72209;SDS011;60113;48.762;12.302;2022-07-10T03:29:45;8.23;;;4.65;;
72209;SDS011;60113;48.762;12.302;2022-07-10T03:32:11;11.05;;;5.20;;
72209;SDS011;60113;48.762;12.302;2022-07-10T03:34:37;6.15;;;4.57;;
72209;SDS011;60113;48.762;12.302;2022-07-10T03:37:02;9.55;;;5.35;;
72209;SDS011;60113;48.762;12.302;2022-07-10T03:39:28;12.20;;;5.18;;
72209;SDS011;60113;48.762;12.302;2022-07-10T03:41:53;7.00;;;4.93;;
72209;SDS011;60113;48.762;12.302;2022-07-10T03:44:19;14.05;;;5.43;;
72209;SDS011;60113;48.762;12.302;2022-07-10T03:46:45;7.03;;;5.55;;
72209;SDS011;60113;48.762;12.302;2022-07-10T03:49:10;17.13;;;5.63;;
72209;SDS011;60113;48.762;12.302;2022-07-10T03:51:36;8.93;;;5.70;;
72209;SDS011;60113;48.762;12.302;2022-07-10T03:54:01;11.02;;;5.35;;
72209;SDS011;60113;48.762;12.302;2022-07-10T03:56:27;9.98;;;5.88;;
72209;SDS011;60113;48.762;12.302;2022-07-10T03:59:11;9.45;;;6.40;;
72209;SDS011;60113;48.762;12.302;2022-07-10T04:01:36;13.88;;;6.10;;
72209;SDS011;60113;48.762;12.302;2022-07-10T04:04:02;8.30;;;6.20;;
72209;SDS011;60113;48.762;12.302;2022-07-10T04:06:28;8.80;;;5.95;;
72209;SDS011;60113;48.762;12.302;2022-07-10T04:08:53;11.23;;;5.57;;
72209;SDS011;60113;48.762;12.302;2022-07-10T04:11:19;12.50;;;5.68;;
72209;SDS011;60113;48.762;12.302;2022-07-10T04:13:44;8.25;;;6.13;;
72209;SDS011;60113;48.762;12.302;2022-07-10T04:16:10;13.18;;;6.70;;
72209;SDS011;60113;48.762;12.302;2022-07-10T04:18:38;12.77;;;6.75;;
72209;SDS011;60113;48.762;12.302;2022-07-10T04:21:04;11.48;;;6.70;;
72209;SDS011;60113;48.762;12.302;2022-07-10T04:23:31;10.73;;;5.85;;
72209;SDS011;60113;48.762;12.302;2022-07-10T04:25:57;11.57;;;7.75;;
72209;SDS011;60113;48.762;12.302;2022-07-10T04:28:23;7.18;;;5.45;;
72209;SDS011;60113;48.762;12.302;2022-07-10T04:30:49;13.20;;;5.63;;
72209;SDS011;60113;48.762;12.302;2022-07-10T04:33:14;10.60;;;5.40;;
72209;SDS011;60113;48.762;12.302;2022-07-10T04:35:40;6.97;;;5.25;;
72209;SDS011;60113;48.762;12.302;2022-07-10T04:38:05;6.32;;;4.97;;
72209;SDS011;60113;48.762;12.302;2022-07-10T04:40:31;6.50;;;4.93;;
72209;SDS011;60113;48.762;12.302;2022-07-10T04:42:58;14.70;;;5.15;;
72209;SDS011;60113;48.762;12.302;2022-07-10T04:45:24;9.88;;;4.47;;
72209;SDS011;60113;48.762;12.302;2022-07-10T04:47:50;5.95;;;4.82;;
72209;SDS011;60113;48.762;12.302;2022-07-10T04:50:17;6.15;;;3.75;;
72209;SDS011;60113;48.762;12.302;2022-07-10T04:52:44;12.45;;;4.47;;
72209;SDS011;60113;48.762;12.302;2022-07-10T04:55:09;5.97;;;3.83;;
72209;SDS011;60113;48.762;12.302;2022-07-10T04:57:34;10.55;;;4.50;;
72209;SDS011;60113;48.762;12.302;2022-07-10T05:00:00;9.07;;;3.90;;
72209;SDS011;60113;48.762;12.302;2022-07-10T05:02:26;9.10;;;4.28;;
72209;SDS011;60113;48.762;12.302;2022-07-10T05:04:51;11.38;;;3.67;;
72209;SDS011;60113;48.762;12.302;2022-07-10T05:07:18;8.82;;;3.85;;
72209;SDS011;60113;48.762;12.302;2022-07-10T05:09:43;6.55;;;3.72;;
72209;SDS011;60113;48.762;12.302;2022-07-10T05:12:09;7.15;;;3.28;;
72209;SDS011;60113;48.762;12.302;2022-07-10T05:14:34;10.23;;;3.30;;
72209;SDS011;60113;48.762;12.302;2022-07-10T05:17:00;7.88;;;3.80;;
72209;SDS011;60113;48.762;12.302;2022-07-10T05:19:25;10.40;;;2.78;;
72209;SDS011;60113;48.762;12.302;2022-07-10T05:21:50;8.02;;;2.97;;
72209;SDS011;60113;48.762;12.302;2022-07-10T05:24:16;8.43;;;2.83;;
72209;SDS011;60113;48.762;12.302;2022-07-10T05:26:41;11.32;;;2.63;;
72209;SDS011;60113;48.762;12.302;2022-07-10T05:29:07;5.60;;;2.65;;
72209;SDS011;60113;48.762;12.302;2022-07-10T05:31:33;4.18;;;2.20;;
72209;SDS011;60113;48.762;12.302;2022-07-10T05:33:59;4.20;;;2.60;;
72209;SDS011;60113;48.762;12.302;2022-07-10T05:36:24;6.38;;;2.60;;
72209;SDS011;60113;48.762;12.302;2022-07-10T05:38:49;3.92;;;1.98;;
72209;SDS011;60113;48.762;12.302;2022-07-10T05:41:15;8.25;;;2.42;;
72209;SDS011;60113;48.762;12.302;2022-07-10T05:43:41;9.27;;;2.80;;
72209;SDS011;60113;48.762;12.302;2022-07-10T05:46:06;8.07;;;2.60;;
72209;SDS011;60113;48.762;12.302;2022-07-10T05:48:32;5.60;;;2.58;;
72209;SDS011;60113;48.762;12.302;2022-07-10T05:50:59;4.78;;;2.08;;
72209;SDS011;60113;48.762;12.302;2022-07-10T05:53:24;4.47;;;2.25;;
72209;SDS011;60113;48.762;12.302;2022-07-10T05:55:49;4.88;;;1.92;;
72209;SDS011;60113;48.762;12.302;2022-07-10T05:58:15;5.50;;;3.28;;
72209;SDS011;60113;48.762;12.302;2022-07-10T06:00:41;7.60;;;2.78;;
72209;SDS011;60113;48.762;12.302;2022-07-10T06:03:09;5.05;;;2.25;;
72209;SDS011;60113;48.762;12.302;2022-07-10T06:05:35;5.55;;;2.17;;
72209;SDS011;60113;48.762;12.302;2022-07-10T06:08:01;5.97;;;1.98;;
72209;SDS011;60113;48.762;12.302;2022-07-10T06:10:27;9.70;;;2.00;;
72209;SDS011;60113;48.762;12.302;2022-07-10T06:12:52;6.90;;;2.33;;
72209;SDS011;60113;48.762;12.302;2022-07-10T06:15:17;5.75;;;2.10;;
72209;SDS011;60113;48.762;12.302;2022-07-10T06:17:43;6.70;;;2.42;;
72209;SDS011;60113;48.762;12.302;2022-07-10T06:20:09;5.60;;;2.00;;
72209;SDS011;60113;48.762;12.302;2022-07-10T06:22:35;3.25;;;1.60;;
72209;SDS011;60113;48.762;12.302;2022-07-10T06:25:01;4.00;;;2.17;;
72209;SDS011;60113;48.762;12.302;2022-07-10T06:27:28;10.65;;;1.95;;
72209;SDS011;60113;48.762;12.302;2022-07-10T06:29:54;4.10;;;1.45;;
72209;SDS011;60113;48.762;12.302;2022-07-10T06:32:20;8.18;;;2.00;;
72209;SDS011;60113;48.762;12.302;2022-07-10T06:34:46;7.75;;;1.95;;
72209;SDS011;60113;48.762;12.302;2022-07-10T06:37:12;3.78;;;1.92;;
72209;SDS011;60113;48.762;12.302;2022-07-10T06:39:37;4.80;;;1.70;;
72209;SDS011;60113;48.762;12.302;2022-07-10T06:42:03;12.48;;;2.42;;
72209;SDS011;60113;48.762;12.302;2022-07-10T06:44:29;3.35;;;1.73;;
72209;SDS011;60113;48.762;12.302;2022-07-10T06:46:55;7.85;;;1.80;;
72209;SDS011;60113;48.762;12.302;2022-07-10T06:49:40;3.78;;;1.48;;
72209;SDS011;60113;48.762;12.302;2022-07-10T06:52:06;7.13;;;2.15;;
72209;SDS011;60113;48.762;12.302;2022-07-10T06:54:32;7.22;;;2.10;;
72209;SDS011;60113;48.762;12.302;2022-07-10T06:56:58;11.60;;;2.15;;
72209;SDS011;60113;48.762;12.302;2022-07-10T06:59:23;4.95;;;1.67;;
72209;SDS011;60113;48.762;12.302;2022-07-10T07:01:49;15.98;;;1.45;;
72209;SDS011;60113;48.762;12.302;2022-07-10T07:04:15;2.75;;;1.30;;
72209;SDS011;60113;48.762;12.302;2022-07-10T07:06:40;3.95;;;1.65;;
72209;SDS011;60113;48.762;12.302;2022-07-10T07:09:06;4.88;;;1.10;;
72209;SDS011;60113;48.762;12.302;2022-07-10T07:11:31;3.50;;;1.40;;
72209;SDS011;60113;48.762;12.302;2022-07-10T07:13:56;7.13;;;1.75;;
72209;SDS011;60113;48.762;12.302;2022-07-10T07:16:22;7.35;;;1.60;;
72209;SDS011;60113;48.762;12.302;2022-07-10T07:19:02;7.57;;;1.67;;
72209;SDS011;60113;48.762;12.302;2022-07-10T07:21:29;6.45;;;1.63;;
72209;SDS011;60113;48.762;12.302;2022-07-10T07:24:16;6.85;;;1.40;;
72209;SDS011;60113;48.762;12.302;2022-07-10T07:26:45;3.97;;;1.40;;
72209;SDS011;60113;48.762;12.302;2022-07-10T07:29:14;5.28;;;1.38;;
72209;SDS011;60113;48.762;12.302;2022-07-10T07:31:40;5.28;;;1.35;;
72209;SDS011;60113;48.762;12.302;2022-07-10T07:34:06;2.15;;;1.05;;
72209;SDS011;60113;48.762;12.302;2022-07-10T07:36:31;5.95;;;1.20;;
72209;SDS011;60113;48.762;12.302;2022-07-10T07:38:57;7.95;;;1.67;;
72209;SDS011;60113;48.762;12.302;2022-07-10T07:41:23;7.55;;;1.05;;
72209;SDS011;60113;48.762;12.302;2022-07-10T07:43:48;3.97;;;1.42;;
72209;SDS011;60113;48.762;12.302;2022-07-10T07:46:14;8.40;;;1.30;;
72209;SDS011;60113;48.762;12.302;2022-07-10T07:48:39;3.22;;;0.93;;
72209;SDS011;60113;48.762;12.302;2022-07-10T07:51:05;2.15;;;1.00;;
72209;SDS011;60113;48.762;12.302;2022-07-10T07:53:31;7.28;;;1.60;;
72209;SDS011;60113;48.762;12.302;2022-07-10T07:55:57;3.30;;;1.20;;
72209;SDS011;60113;48.762;12.302;2022-07-10T07:58:22;11.32;;;1.60;;
72209;SDS011;60113;48.762;12.302;2022-07-10T08:00:48;7.20;;;1.20;;
72209;SDS011;60113;48.762;12.302;2022-07-10T08:03:13;7.80;;;1.42;;
72209;SDS011;60113;48.762;12.302;2022-07-10T08:05:39;8.20;;;3.42;;
72209;SDS011;60113;48.762;12.302;2022-07-10T08:08:04;7.78;;;1.70;;
72209;SDS011;60113;48.762;12.302;2022-07-10T08:10:33;6.03;;;0.88;;
72209;SDS011;60113;48.762;12.302;2022-07-10T08:12:59;2.70;;;1.17;;
72209;SDS011;60113;48.762;12.302;2022-07-10T08:15:25;4.43;;;1.20;;
72209;SDS011;60113;48.762;12.302;2022-07-10T08:17:52;2.83;;;1.13;;
72209;SDS011;60113;48.762;12.302;2022-07-10T08:20:20;8.80;;;1.90;;
72209;SDS011;60113;48.762;12.302;2022-07-10T08:22:47;6.32;;;2.45;;
72209;SDS011;60113;48.762;12.302;2022-07-10T08:25:13;11.00;;;1.50;;
72209;SDS011;60113;48.762;12.302;2022-07-10T08:27:40;5.65;;;1.67;;
72209;SDS011;60113;48.762;12.302;2022-07-10T08:30:08;6.85;;;1.70;;
72209;SDS011;60113;48.762;12.302;2022-07-10T08:32:35;1.70;;;0.80;;
72209;SDS011;60113;48.762;12.302;2022-07-10T08:35:02;11.43;;;1.55;;
72209;SDS011;60113;48.762;12.302;2022-07-10T08:37:29;4.50;;;1.10;;
72209;SDS011;60113;48.762;12.302;2022-07-10T08:39:55;6.68;;;1.30;;
72209;SDS011;60113;48.762;12.302;2022-07-10T08:42:21;4.38;;;1.52;;
72209;SDS011;60113;48.762;12.302;2022-07-10T08:44:51;3.28;;;1.00;;
72209;SDS011;60113;48.762;12.302;2022-07-10T08:47:18;4.78;;;1.20;;
72209;SDS011;60113;48.762;12.302;2022-07-10T08:49:47;4.60;;;1.40;;
72209;SDS011;60113;48.762;12.302;2022-07-10T08:52:16;3.25;;;1.30;;
72209;SDS011;60113;48.762;12.302;2022-07-10T08:55:03;5.32;;;1.58;;
72209;SDS011;60113;48.762;12.302;2022-07-10T08:57:29;8.07;;;1.48;;
72209;SDS011;60113;48.762;12.302;2022-07-10T08:59:56;5.40;;;1.30;;
72209;SDS011;60113;48.762;12.302;2022-07-10T09:02:22;7.60;;;1.30;;
72209;SDS011;60113;48.762;12.302;2022-07-10T09:04:48;3.47;;;1.08;;
72209;SDS011;60113;48.762;12.302;2022-07-10T09:07:13;17.52;;;11.70;;
72209;SDS011;60113;48.762;12.302;2022-07-10T09:09:52;7.07;;;1.33;;
72209;SDS011;60113;48.762;12.302;2022-07-10T09:12:21;2.75;;;1.33;;
72209;SDS011;60113;48.762;12.302;2022-07-10T09:14:48;4.82;;;1.15;;
72209;SDS011;60113;48.762;12.302;2022-07-10T09:17:14;4.22;;;2.28;;
72209;SDS011;60113;48.762;12.302;2022-07-10T09:19:40;3.53;;;1.50;;
72209;SDS011;60113;48.762;12.302;2022-07-10T09:22:09;6.00;;;2.08;;
72209;SDS011;60113;48.762;12.302;2022-07-10T09:24:40;4.40;;;1.65;;
72209;SDS011;60113;48.762;12.302;2022-07-10T09:27:05;1.95;;;0.80;;
72209;SDS011;60113;48.762;12.302;2022-07-10T09:29:31;3.33;;;1.17;;
72209;SDS011;60113;48.762;12.302;2022-07-10T09:32:01;7.03;;;1.50;;
72209;SDS011;60113;48.762;12.302;2022-07-10T09:37:19;10.00;;;1.00;;
72209;SDS011;60113;48.762;12.302;2022-07-10T09:40:05;4.68;;;0.93;;
72209;SDS011;60113;48.762;12.302;2022-07-10T09:45:22;1.55;;;0.70;;
72209;SDS011;60113;48.762;12.302;2022-07-10T09:47:54;2.70;;;0.88;;
72209;SDS011;60113;48.762;12.302;2022-07-10T09:50:31;2.42;;;0.98;;
72209;SDS011;60113;48.762;12.302;2022-07-10T09:55:26;2.80;;;0.95;;
72209;SDS011;60113;48.762;12.302;2022-07-10T09:57:55;3.97;;;1.13;;
72209;SDS011;60113;48.762;12.302;2022-07-10T10:00:29;2.13;;;0.90;;
72209;SDS011;60113;48.762;12.302;2022-07-10T10:03:00;2.45;;;0.70;;
72209;SDS011;60113;48.762;12.302;2022-07-10T10:05:35;2.38;;;0.77;;
72209;SDS011;60113;48.762;12.302;2022-07-10T10:08:12;3.72;;;1.27;;
72209;SDS011;60113;48.762;12.302;2022-07-10T10:10:45;3.90;;;1.50;;
72209;SDS011;60113;48.762;12.302;2022-07-10T10:13:14;4.97;;;1.88;;
72209;SDS011;60113;48.762;12.302;2022-07-10T10:15:43;6.25;;;1.55;;
72209;SDS011;60113;48.762;12.302;2022-07-10T10:18:10;4.15;;;1.10;;
72209;SDS011;60113;48.762;12.302;2022-07-10T10:20:37;4.25;;;1.10;;
72209;SDS011;60113;48.762;12.302;2022-07-10T10:23:10;5.05;;;1.30;;
72209;SDS011;60113;48.762;12.302;2022-07-10T10:25:40;2.17;;;0.90;;
72209;SDS011;60113;48.762;12.302;2022-07-10T10:28:08;4.07;;;0.85;;
72209;SDS011;60113;48.762;12.302;2022-07-10T10:30:39;2.83;;;0.65;;
72209;SDS011;60113;48.762;12.302;2022-07-10T10:35:57;1.52;;;0.70;;
72209;SDS011;60113;48.762;12.302;2022-07-10T10:38:25;3.92;;;0.75;;
72209;SDS011;60113;48.762;12.302;2022-07-10T10:49:20;5.50;;;1.27;;
72209;SDS011;60113;48.762;12.302;2022-07-10T10:54:59;3.55;;;1.00;;
72209;SDS011;60113;48.762;12.302;2022-07-10T10:57:20;1.42;;;0.50;;
72209;SDS011;60113;48.762;12.302;2022-07-10T11:02:25;4.97;;;0.75;;
72209;SDS011;60113;48.762;12.302;2022-07-10T11:04:50;2.53;;;0.70;;
72209;SDS011;60113;48.762;12.302;2022-07-10T11:07:59;5.90;;;0.85;;
72209;SDS011;60113;48.762;12.302;2022-07-10T11:10:34;2.17;;;0.70;;
72209;SDS011;60113;48.762;12.302;2022-07-10T11:13:06;3.10;;;1.00;;
72209;SDS011;60113;48.762;12.302;2022-07-10T11:15:50;4.82;;;0.82;;
72209;SDS011;60113;48.762;12.302;2022-07-10T11:18:18;4.63;;;1.00;;
72209;SDS011;60113;48.762;12.302;2022-07-10T11:20:47;3.30;;;1.13;;
72209;SDS011;60113;48.762;12.302;2022-07-10T11:28:54;2.30;;;1.00;;
72209;SDS011;60113;48.762;12.302;2022-07-10T11:31:24;10.35;;;0.75;;
72209;SDS011;60113;48.762;12.302;2022-07-10T11:33:54;2.67;;;0.80;;
72209;SDS011;60113;48.762;12.302;2022-07-10T11:36:21;3.03;;;0.88;;
72209;SDS011;60113;48.762;12.302;2022-07-10T11:39:00;1.85;;;0.60;;
72209;SDS011;60113;48.762;12.302;2022-07-10T11:41:28;3.15;;;0.75;;
72209;SDS011;60113;48.762;12.302;2022-07-10T11:46:26;3.53;;;1.17;;
72209;SDS011;60113;48.762;12.302;2022-07-10T11:48:53;3.47;;;0.90;;
72209;SDS011;60113;48.762;12.302;2022-07-10T11:51:28;1.95;;;0.60;;
72209;SDS011;60113;48.762;12.302;2022-07-10T11:53:57;2.53;;;0.57;;
72209;SDS011;60113;48.762;12.302;2022-07-10T11:56:23;3.38;;;1.40;;
72209;SDS011;60113;48.762;12.302;2022-07-10T12:01:32;1.80;;;0.70;;
72209;SDS011;60113;48.762;12.302;2022-07-10T12:04:00;2.27;;;0.70;;
72209;SDS011;60113;48.762;12.302;2022-07-10T12:06:28;5.88;;;1.40;;
72209;SDS011;60113;48.762;12.302;2022-07-10T12:08:55;3.15;;;1.10;;
72209;SDS011;60113;48.762;12.302;2022-07-10T12:11:24;2.97;;;0.82;;
72209;SDS011;60113;48.762;12.302;2022-07-10T12:14:13;2.60;;;0.70;;
72209;SDS011;60113;48.762;12.302;2022-07-10T12:16:46;1.92;;;0.52;;
72209;SDS011;60113;48.762;12.302;2022-07-10T12:19:16;1.95;;;0.55;;
72209;SDS011;60113;48.762;12.302;2022-07-10T12:21:43;2.38;;;0.63;;
72209;SDS011;60113;48.762;12.302;2022-07-10T12:24:10;1.23;;;0.55;;
72209;SDS011;60113;48.762;12.302;2022-07-10T12:26:38;2.20;;;0.57;;
72209;SDS011;60113;48.762;12.302;2022-07-10T12:29:06;1.42;;;0.60;;
72209;SDS011;60113;48.762;12.302;2022-07-10T12:31:38;1.33;;;0.38;;
72209;SDS011;60113;48.762;12.302;2022-07-10T12:34:04;3.35;;;0.43;;
72209;SDS011;60113;48.762;12.302;2022-07-10T12:36:49;3.08;;;0.85;;
72209;SDS011;60113;48.762;12.302;2022-07-10T12:39:20;3.72;;;0.90;;
72209;SDS011;60113;48.762;12.302;2022-07-10T12:42:03;1.73;;;0.65;;
72209;SDS011;60113;48.762;12.302;2022-07-10T12:44:37;1.23;;;0.32;;
72209;SDS011;60113;48.762;12.302;2022-07-10T12:47:13;1.23;;;0.47;;
72209;SDS011;60113;48.762;12.302;2022-07-10T12:52:25;1.40;;;0.50;;
72209;SDS011;60113;48.762;12.302;2022-07-10T12:55:11;1.60;;;0.60;;
72209;SDS011;60113;48.762;12.302;2022-07-10T13:00:22;1.85;;;0.43;;
72209;SDS011;60113;48.762;12.302;2022-07-10T13:05:26;3.92;;;0.50;;
72209;SDS011;60113;48.762;12.302;2022-07-10T13:07:52;2.80;;;0.60;;
72209;SDS011;60113;48.762;12.302;2022-07-10T13:10:18;3.67;;;0.45;;
72209;SDS011;60113;48.762;12.302;2022-07-10T13:12:44;2.33;;;0.50;;
72209;SDS011;60113;48.762;12.302;2022-07-10T13:15:10;1.20;;;0.40;;
72209;SDS011;60113;48.762;12.302;2022-07-10T13:17:43;1.77;;;0.43;;
72209;SDS011;60113;48.762;12.302;2022-07-10T13:20:09;1.95;;;0.60;;
72209;SDS011;60113;48.762;12.302;2022-07-10T13:22:35;0.82;;;0.30;;
72209;SDS011;60113;48.762;12.302;2022-07-10T13:25:00;3.92;;;0.57;;
72209;SDS011;60113;48.762;12.302;2022-07-10T13:27:26;15.38;;;1.67;;
72209;SDS011;60113;48.762;12.302;2022-07-10T13:29:52;3.63;;;0.60;;
72209;SDS011;60113;48.762;12.302;2022-07-10T13:32:18;3.22;;;1.05;;
72209;SDS011;60113;48.762;12.302;2022-07-10T13:34:43;1.45;;;0.65;;
72209;SDS011;60113;48.762;12.302;2022-07-10T13:37:08;2.90;;;0.60;;
72209;SDS011;60113;48.762;12.302;2022-07-10T13:39:38;3.83;;;0.80;;
72209;SDS011;60113;48.762;12.302;2022-07-10T13:42:04;3.30;;;0.60;;
72209;SDS011;60113;48.762;12.302;2022-07-10T13:44:29;4.80;;;0.40;;
72209;SDS011;60113;48.762;12.302;2022-07-10T13:46:55;1.92;;;0.32;;
72209;SDS011;60113;48.762;12.302;2022-07-10T13:49:21;1.35;;;0.25;;
72209;SDS011;60113;48.762;12.302;2022-07-10T13:51:47;2.40;;;0.50;;
72209;SDS011;60113;48.762;12.302;2022-07-10T13:54:13;1.42;;;0.35;;
72209;SDS011;60113;48.762;12.302;2022-07-10T13:56:39;0.55;;;0.22;;
72209;SDS011;60113;48.762;12.302;2022-07-10T13:59:05;0.63;;;0.30;;
72209;SDS011;60113;48.762;12.302;2022-07-10T14:01:31;1.80;;;0.45;;
72209;SDS011;60113;48.762;12.302;2022-07-10T14:03:56;0.90;;;0.30;;
72209;SDS011;60113;48.762;12.302;2022-07-10T14:06:22;0.60;;;0.30;;
72209;SDS011;60113;48.762;12.302;2022-07-10T14:08:47;1.42;;;0.32;;
72209;SDS011;60113;48.762;12.302;2022-07-10T14:11:13;8.65;;;1.10;;
72209;SDS011;60113;48.762;12.302;2022-07-10T14:13:38;0.50;;;0.20;;
72209;SDS011;60113;48.762;12.302;2022-07-10T14:16:04;4.07;;;0.30;;
72209;SDS011;60113;48.762;12.302;2022-07-10T14:18:29;2.08;;;0.63;;
72209;SDS011;60113;48.762;12.302;2022-07-10T14:21:03;1.45;;;0.32;;
72209;SDS011;60113;48.762;12.302;2022-07-10T14:23:30;3.72;;;0.55;;
72209;SDS011;60113;48.762;12.302;2022-07-10T14:25:57;0.93;;;0.30;;
72209;SDS011;60113;48.762;12.302;2022-07-10T14:28:23;1.08;;;0.40;;
72209;SDS011;60113;48.762;12.302;2022-07-10T14:30:49;3.15;;;0.60;;
72209;SDS011;60113;48.762;12.302;2022-07-10T14:33:14;1.90;;;0.45;;
72209;SDS011;60113;48.762;12.302;2022-07-10T14:35:41;1.05;;;0.30;;
72209;SDS011;60113;48.762;12.302;2022-07-10T14:38:06;1.23;;;0.40;;
72209;SDS011;60113;48.762;12.302;2022-07-10T14:40:32;0.35;;;0.20;;
72209;SDS011;60113;48.762;12.302;2022-07-10T14:42:58;1.17;;;0.40;;
72209;SDS011;60113;48.762;12.302;2022-07-10T14:45:24;3.38;;;0.40;;
72209;SDS011;60113;48.762;12.302;2022-07-10T14:47:50;2.50;;;0.40;;
72209;SDS011;60113;48.762;12.302;2022-07-10T14:50:15;0.68;;;0.40;;
72209;SDS011;60113;48.762;12.302;2022-07-10T14:52:44;3.33;;;0.50;;
72209;SDS011;60113;48.762;12.302;2022-07-10T14:55:10;3.20;;;0.50;;
72209;SDS011;60113;48.762;12.302;2022-07-10T14:57:36;2.22;;;0.30;;
72209;SDS011;60113;48.762;12.302;2022-07-10T15:00:01;0.80;;;0.30;;
72209;SDS011;60113;48.762;12.302;2022-07-10T15:02:27;1.83;;;0.40;;
72209;SDS011;60113;48.762;12.302;2022-07-10T15:04:52;5.22;;;0.60;;
72209;SDS011;60113;48.762;12.302;2022-07-10T15:07:18;3.70;;;0.50;;
72209;SDS011;60113;48.762;12.302;2022-07-10T15:09:44;2.00;;;0.30;;
72209;SDS011;60113;48.762;12.302;2022-07-10T15:12:10;4.15;;;0.50;;
72209;SDS011;60113;48.762;12.302;2022-07-10T15:14:35;0.90;;;0.32;;
72209;SDS011;60113;48.762;12.302;2022-07-10T15:17:01;1.10;;;0.30;;